Time;durP1;ratioP1;P1;durP2;ratioP2;P2;SDS_P1;SDS_P2;PMS_P1;PMS_P2;Temp;Humidity;BMP_temperature;BMP_pressure;BME280_temperature;BME280_humidity;BME280_pressure;Samples;Min_cycle;Max_cycle;Signal;HPM_P1;HPM_P2
2022/07/08 00:03:18;;;;;;;7.18;1.67;;;;;;;12.49;100.00;99225.34;15271911;19;20019;-76
2022/07/08 00:08:23;;;;;;;7.13;1.55;;;;;;;12.48;100.00;99231.75;15288999;19;20043;-74
2022/07/08 00:13:31;;;;;;;6.40;1.50;;;;;;;12.44;100.00;99230.34;15286232;19;20483;-75
2022/07/08 00:18:36;;;;;;;9.20;1.85;;;;;;;12.48;100.00;99216.34;15289324;19;20015;-75
2022/07/08 00:23:41;;;;;;;7.35;1.80;;;;;;;12.51;100.00;99222.47;15290845;19;20030;-77
2022/07/08 00:28:49;;;;;;;7.40;1.80;;;;;;;12.45;100.00;99224.78;15287761;19;20022;-76
2022/07/08 00:33:54;;;;;;;5.60;1.45;;;;;;;12.47;100.00;99230.03;15288501;19;20018;-79
2022/07/08 00:38:59;;;;;;;7.00;1.80;;;;;;;12.45;100.00;99229.34;15285634;19;20031;-77
2022/07/08 00:44:07;;;;;;;7.40;1.40;;;;;;;12.45;100.00;99242.84;15281114;19;20015;-76
2022/07/08 00:49:12;;;;;;;8.10;1.60;;;;;;;12.46;100.00;99245.41;15288567;19;20028;-77
2022/07/08 00:54:20;;;;;;;6.22;1.50;;;;;;;12.49;100.00;99236.16;15281827;19;20010;-74
2022/07/08 00:59:28;;;;;;;5.30;1.48;;;;;;;12.50;100.00;99256.75;15279567;19;20366;-75
2022/07/08 01:04:33;;;;;;;6.05;1.65;;;;;;;12.49;100.00;99255.06;15282012;19;20010;-75
2022/07/08 01:09:38;;;;;;;7.45;1.50;;;;;;;12.51;100.00;99255.75;15283413;19;20013;-75
2022/07/08 01:14:46;;;;;;;6.20;1.40;;;;;;;12.46;100.00;99260.75;15279747;19;20022;-76
2022/07/08 01:19:52;;;;;;;4.65;1.42;;;;;;;12.49;100.00;99263.16;15275919;19;20023;-74
2022/07/08 01:25:00;;;;;;;5.13;1.70;;;;;;;12.44;100.00;99251.97;15280686;19;20010;-75
2022/07/08 01:30:06;;;;;;;6.95;1.67;;;;;;;12.45;100.00;99248.25;15283064;19;20022;-75
2022/07/08 01:35:11;;;;;;;6.65;1.60;;;;;;;12.42;100.00;99256.66;15280080;19;20018;-75
2022/07/08 01:40:19;;;;;;;6.68;1.45;;;;;;;12.44;100.00;99246.56;15285523;19;20003;-75
2022/07/08 01:45:24;;;;;;;6.32;1.70;;;;;;;12.43;100.00;99266.47;15284467;19;20466;-76
2022/07/08 01:50:29;;;;;;;6.68;1.50;;;;;;;12.43;100.00;99247.53;15284156;19;20476;-74
2022/07/08 01:55:37;;;;;;;6.00;1.48;;;;;;;12.39;100.00;99265.09;15283265;19;20737;-77
2022/07/08 02:00:42;;;;;;;6.20;1.80;;;;;;;12.39;100.00;99270.50;15291683;19;20443;-74
2022/07/08 02:05:48;;;;;;;6.78;1.85;;;;;;;12.39;100.00;99273.19;15304278;19;20010;-75
2022/07/08 02:16:13;;;;;;;7.22;1.70;;;;;;;12.42;100.00;99280.97;15275833;19;20023;-74
2022/07/08 02:21:18;;;;;;;6.15;1.60;;;;;;;12.37;100.00;99281.44;15278419;19;20022;-75
2022/07/08 02:26:26;;;;;;;8.32;1.70;;;;;;;12.37;100.00;99277.91;15275804;19;20042;-75
2022/07/08 02:31:31;;;;;;;6.93;1.80;;;;;;;12.37;100.00;99277.91;15274887;19;20011;-75
2022/07/08 02:36:36;;;;;;;6.68;1.70;;;;;;;12.40;100.00;99285.72;15272080;19;20015;-76
2022/07/08 02:41:44;;;;;;;9.50;1.90;;;;;;;12.39;100.00;99278.59;15276255;19;20047;-75
2022/07/08 02:46:49;;;;;;;10.05;1.88;;;;;;;12.39;100.00;99300.22;15280741;19;20019;-75
2022/07/08 02:51:55;;;;;;;7.47;1.90;;;;;;;12.39;100.00;99292.94;15278402;19;20011;-75
2022/07/08 02:57:02;;;;;;;6.13;1.73;;;;;;;12.40;100.00;99304.63;15276290;19;20019;-75
2022/07/08 03:02:07;;;;;;;8.68;1.75;;;;;;;12.39;100.00;99305.63;15276683;19;20014;-75
2022/07/08 03:07:18;;;;;;;6.90;2.00;;;;;;;12.36;100.00;99312.16;15272158;19;20014;-75
2022/07/08 03:12:26;;;;;;;8.13;1.83;;;;;;;12.39;100.00;99301.06;15278204;19;20492;-75
2022/07/08 03:17:31;;;;;;;9.80;1.98;;;;;;;12.37;100.00;99311.16;15276003;19;20010;-73
2022/07/08 03:22:36;;;;;;;9.18;1.85;;;;;;;12.41;100.00;99300.91;15275770;19;20503;-74
2022/07/08 03:27:44;;;;;;;9.55;1.90;;;;;;;12.38;100.00;99302.06;15268365;19;20038;-74
2022/07/08 03:32:50;;;;;;;7.32;1.77;;;;;;;12.38;100.00;99312.03;15271716;19;20007;-75
2022/07/08 03:37:55;;;;;;;8.88;2.03;;;;;;;12.39;100.00;99319.13;15280343;19;20024;-75
2022/07/08 03:43:03;;;;;;;8.32;1.92;;;;;;;12.40;100.00;99310.88;15280078;19;20006;-75
2022/07/08 03:48:08;;;;;;;9.07;2.00;;;;;;;12.40;100.00;99305.47;15278323;19;20542;-76
2022/07/08 03:53:13;;;;;;;6.63;1.77;;;;;;;12.45;100.00;99321.22;15270182;19;20018;-76
2022/07/08 03:58:21;;;;;;;9.02;1.90;;;;;;;12.44;100.00;99339.31;15271745;19;20011;-77
2022/07/08 04:03:26;;;;;;;8.85;2.03;;;;;;;12.44;100.00;99333.03;15274489;19;20746;-78
2022/07/08 04:08:31;;;;;;;6.88;1.80;;;;;;;12.43;100.00;99347.53;15278512;19;20014;-76
2022/07/08 04:13:40;;;;;;;9.02;2.05;;;;;;;12.42;100.00;99345.84;15272551;19;20025;-75
2022/07/08 04:18:45;;;;;;;7.57;1.75;;;;;;;12.44;100.00;99354.66;15278353;19;20758;-76
2022/07/08 04:23:50;;;;;;;10.07;1.90;;;;;;;12.45;100.00;99350.94;15276914;19;20471;-75
2022/07/08 04:28:58;;;;;;;8.85;1.80;;;;;;;12.48;100.00;99367.72;15280934;19;20030;-76
2022/07/08 04:34:03;;;;;;;7.90;1.83;;;;;;;12.50;100.00;99370.28;15274099;19;20703;-73
2022/07/08 04:39:08;;;;;;;8.52;1.95;;;;;;;12.52;100.00;99381.81;15278555;19;20014;-74
2022/07/08 04:44:16;;;;;;;7.50;1.70;;;;;;;12.48;100.00;99383.09;15271721;19;20022;-73
2022/07/08 04:49:21;;;;;;;8.65;2.15;;;;;;;12.49;100.00;99392.91;15279525;19;20014;-74
2022/07/08 04:54:26;;;;;;;9.23;1.83;;;;;;;12.46;100.00;99395.91;15290183;19;20015;-75
2022/07/08 04:59:35;;;;;;;10.50;2.10;;;;;;;12.41;100.00;99400.88;15292516;19;20024;-74
2022/07/08 05:04:41;;;;;;;10.38;2.13;;;;;;;12.25;100.00;99421.31;15286377;19;20010;-74
2022/07/08 05:21:24;;;;;;;8.07;2.25;;;;;;;12.04;100.00;99464.72;15291752;19;20662;-84
2022/07/08 05:26:57;;;;;;;8.82;1.90;;;;;;;11.98;100.00;99474.25;15292169;19;20563;-83
2022/07/08 05:32:07;;;;;;;9.68;2.15;;;;;;;11.92;100.00;99472.13;15295894;19;20907;-84
2022/07/08 05:37:12;;;;;;;11.02;2.72;;;;;;;11.95;100.00;99487.16;15293140;19;20021;-87
2022/07/08 05:42:24;;;;;;;10.70;2.22;;;;;;;11.94;100.00;99507.91;15291917;19;20021;-85
2022/07/08 05:47:48;;;;;;;9.43;2.20;;;;;;;11.97;100.00;99504.94;15294676;19;20367;-84
2022/07/08 06:00:02;;;;;;;9.95;2.22;;;;;;;12.07;100.00;99510.34;15296382;19;20517;-88
2022/07/08 06:05:15;;;;;;;8.15;2.08;;;;;;;12.11;100.00;99519.03;15278896;19;20633;-66
2022/07/08 06:10:21;;;;;;;10.95;2.25;;;;;;;12.14;100.00;99513.34;15277774;19;20010;-66
2022/07/08 06:15:29;;;;;;;10.93;2.20;;;;;;;12.18;100.00;99517.44;15279501;19;20018;-64
2022/07/08 06:20:35;;;;;;;9.07;2.10;;;;;;;12.25;100.00;99521.28;15275924;19;20039;-62
2022/07/08 06:25:40;;;;;;;9.85;2.38;;;;;;;12.28;100.00;99523.69;15279665;19;20037;-63
2022/07/08 06:30:48;;;;;;;9.02;2.17;;;;;;;12.31;100.00;99517.97;15274229;19;20613;-65
2022/07/08 06:35:54;;;;;;;8.85;2.17;;;;;;;12.38;100.00;99525.53;15271326;19;20023;-61
2022/07/08 06:40:59;;;;;;;9.98;2.28;;;;;;;12.45;100.00;99513.13;15263206;19;20011;-61
2022/07/08 06:46:07;;;;;;;8.00;2.05;;;;;;;12.51;100.00;99517.97;15279557;19;20018;-61
2022/07/08 06:51:12;;;;;;;8.80;2.10;;;;;;;12.59;100.00;99520.75;15279509;19;20037;-59
2022/07/08 06:56:17;;;;;;;5.85;1.65;;;;;;;12.67;100.00;99527.28;15272621;19;20014;-60
2022/07/08 07:01:25;;;;;;;8.90;2.10;;;;;;;12.74;100.00;99528.41;15278775;19;20018;-59
2022/07/08 07:06:30;;;;;;;8.38;2.03;;;;;;;12.79;100.00;99515.28;15278190;19;20042;-60
2022/07/08 07:11:35;;;;;;;7.93;2.08;;;;;;;12.84;100.00;99518.41;15273422;19;20010;-60
2022/07/08 07:16:43;;;;;;;8.90;2.00;;;;;;;12.90;100.00;99523.19;15273765;19;20043;-61
2022/07/08 07:21:48;;;;;;;7.85;1.70;;;;;;;12.98;100.00;99525.16;15276978;19;20046;-61
2022/07/08 07:26:53;;;;;;;7.38;2.00;;;;;;;13.04;100.00;99526.41;15272974;19;20010;-59
2022/07/08 07:32:01;;;;;;;8.95;2.25;;;;;;;13.10;100.00;99533.94;15278918;19;20130;-60
2022/07/08 07:37:07;;;;;;;7.15;1.80;;;;;;;13.16;100.00;99544.16;15275300;19;20502;-60
2022/07/08 07:42:12;;;;;;;5.95;1.77;;;;;;;13.20;100.00;99545.56;15277763;19;20021;-61
2022/07/08 07:47:20;;;;;;;5.90;1.85;;;;;;;13.28;100.00;99544.81;15270585;19;20478;-61
2022/07/08 07:52:25;;;;;;;6.85;1.67;;;;;;;13.35;100.00;99555.88;15277239;19;20037;-60
2022/07/08 07:57:30;;;;;;;6.13;1.75;;;;;;;13.39;100.00;99555.47;15266849;19;20014;-60
2022/07/08 08:02:37;;;;;;;6.55;1.70;;;;;;;13.45;100.00;99554.00;15275947;19;20018;-60
2022/07/08 08:07:44;;;;;;;7.80;1.75;;;;;;;13.54;100.00;99566.63;15273543;19;20011;-59
2022/07/08 08:12:49;;;;;;;7.35;1.60;;;;;;;13.64;100.00;99555.72;15272136;19;20010;-60
2022/07/08 08:17:56;;;;;;;7.55;1.63;;;;;;;13.80;100.00;99544.22;15268408;19;20035;-61
2022/07/08 08:23:01;;;;;;;6.18;1.63;;;;;;;14.00;100.00;99531.34;15274501;19;20011;-61
2022/07/08 08:28:25;;;;;;;6.85;1.80;;;;;;;14.23;100.00;99524.59;15279229;19;20009;-60
2022/07/08 08:33:33;;;;;;;11.20;1.92;;;;;;;14.51;100.00;99532.59;15282567;19;20554;-59
2022/07/08 08:38:38;;;;;;;5.07;1.58;;;;;;;14.75;100.00;99543.63;15284565;19;20018;-61
2022/07/08 08:43:43;;;;;;;7.00;1.98;;;;;;;14.66;100.00;99549.13;15290382;19;20486;-61
2022/07/08 08:48:51;;;;;;;5.40;1.50;;;;;;;14.75;100.00;99540.91;15281314;19;20576;-61
2022/07/08 08:53:58;;;;;;;5.18;1.50;;;;;;;14.77;100.00;99544.28;15287926;19;20019;-60
2022/07/08 08:59:05;;;;;;;6.03;1.67;;;;;;;14.77;100.00;99549.72;15290495;19;20014;-61
2022/07/08 09:04:12;;;;;;;6.10;1.65;;;;;;;14.73;100.00;99555.63;15280899;19;20035;-60
2022/07/08 09:09:17;;;;;;;5.50;1.38;;;;;;;14.77;100.00;99555.13;15288290;19;20038;-58
2022/07/08 09:14:23;;;;;;;6.47;1.55;;;;;;;14.76;100.00;99545.28;15286025;19;20034;-61
2022/07/08 09:19:31;;;;;;;8.18;1.83;;;;;;;14.94;100.00;99544.38;15287940;19;20014;-60
2022/07/08 09:24:38;;;;;;;6.30;1.70;;;;;;;15.07;100.00;99547.50;15281624;19;20014;-61
2022/07/08 09:29:59;;;;;;;4.50;1.40;;;;;;;15.26;100.00;99553.69;15285989;19;20011;-61
2022/07/08 09:35:14;;;;;;;4.75;1.52;;;;;;;15.34;100.00;99551.00;15277188;19;20014;-60
2022/07/08 09:40:20;;;;;;;6.28;1.60;;;;;;;15.45;100.00;99546.28;15281482;19;20454;-60
2022/07/08 09:45:35;;;;;;;6.88;1.80;;;;;;;15.50;100.00;99542.06;15284731;19;20013;-60
2022/07/08 09:50:45;;;;;;;6.15;1.52;;;;;;;15.69;100.00;99540.06;15283368;19;20011;-61
2022/07/08 09:56:11;;;;;;;7.65;1.50;;;;;;;15.72;100.00;99545.16;15273530;19;20071;-61
2022/07/08 10:01:16;;;;;;;6.00;1.85;;;;;;;16.04;100.00;99548.13;15283521;19;20011;-61
2022/07/08 10:06:24;;;;;;;5.03;1.45;;;;;;;16.12;100.00;99543.50;15276451;19;20104;-60
2022/07/08 10:11:29;;;;;;;7.93;1.40;;;;;;;16.18;100.00;99559.16;15283889;19;20462;-60
2022/07/08 10:16:36;;;;;;;5.55;1.48;;;;;;;16.01;100.00;99557.44;15281959;19;20489;-60
2022/07/08 10:21:46;;;;;;;7.68;1.40;;;;;;;16.08;100.00;99549.47;15282158;19;20018;-61
2022/07/08 10:26:51;;;;;;;5.97;1.48;;;;;;;15.95;100.00;99550.81;15275916;19;20378;-59
2022/07/08 10:31:56;;;;;;;7.18;1.65;;;;;;;16.10;100.00;99551.03;15281121;19;20082;-60
2022/07/08 10:37:05;;;;;;;6.10;1.52;;;;;;;16.12;100.00;99550.84;15280376;19;20014;-61
2022/07/08 10:42:11;;;;;;;4.72;1.33;;;;;;;16.08;100.00;99549.47;15275372;19;20018;-59
2022/07/08 10:47:18;;;;;;;5.40;1.60;;;;;;;16.11;100.00;99540.97;15280627;19;20014;-59
2022/07/08 10:52:34;;;;;;;4.65;1.42;;;;;;;16.09;100.00;99559.31;15281445;19;20015;-60
2022/07/08 10:57:39;;;;;;;4.65;1.30;;;;;;;16.26;100.00;99557.44;15275231;19;20018;-60
2022/07/08 11:02:45;;;;;;;6.88;1.55;;;;;;;16.31;100.00;99550.47;15280466;19;20034;-59
2022/07/08 11:07:52;;;;;;;6.07;1.23;;;;;;;16.29;100.00;99560.66;15277030;19;20033;-56
2022/07/08 11:12:58;;;;;;;4.82;1.10;;;;;;;16.20;100.00;99555.44;15275072;19;20482;-60
2022/07/08 11:18:04;;;;;;;4.25;1.20;;;;;;;16.15;100.00;99558.66;15277807;19;20010;-58
2022/07/08 11:23:12;;;;;;;5.53;1.00;;;;;;;16.18;100.00;99574.59;15277917;19;20041;-60
2022/07/08 11:28:21;;;;;;;4.30;1.40;;;;;;;16.14;100.00;99578.72;15275172;19;20090;-60
2022/07/08 11:33:40;;;;;;;5.20;1.17;;;;;;;16.25;100.00;99567.50;15275651;19;20045;-60
2022/07/08 11:38:48;;;;;;;4.05;1.10;;;;;;;16.41;100.00;99561.19;15275030;19;20024;-58
2022/07/08 11:43:53;;;;;;;6.53;1.27;;;;;;;16.76;100.00;99560.97;15273570;19;20002;-60
2022/07/08 11:48:58;;;;;;;3.83;1.15;;;;;;;16.78;100.00;99572.53;15277113;19;20006;-60
2022/07/08 11:54:06;;;;;;;3.38;1.05;;;;;;;17.00;100.00;99557.38;15278239;19;20037;-59
2022/07/08 11:59:11;;;;;;;3.05;1.00;;;;;;;17.69;100.00;99548.53;15277361;19;20019;-59
2022/07/08 12:04:16;;;;;;;5.15;1.20;;;;;;;17.98;100.00;99537.97;15269853;19;20038;-57
2022/07/08 12:09:25;;;;;;;4.47;1.10;;;;;;;17.55;100.00;99531.06;15276498;19;20453;-60
2022/07/08 12:14:35;;;;;;;5.72;1.30;;;;;;;17.67;100.00;99536.13;15266848;19;20035;-60
2022/07/08 12:19:41;;;;;;;4.03;1.10;;;;;;;17.73;100.00;99529.94;15272424;19;20053;-58
2022/07/08 12:24:49;;;;;;;6.10;1.35;;;;;;;17.97;100.00;99519.91;15273341;19;20014;-58
2022/07/08 12:29:54;;;;;;;2.72;1.00;;;;;;;17.99;100.00;99523.31;15272928;19;20034;-55
2022/07/08 12:35:05;;;;;;;3.97;1.20;;;;;;;18.34;100.00;99515.50;15265339;19;20022;-82
2022/07/08 12:40:20;;;;;;;;;;;;;;;18.31;100.00;99497.63;15281896;19;20016;-82
2022/07/08 12:45:30;;;;;;;4.10;0.90;;;;;;;18.29;100.00;99507.88;15277280;19;19919;-82
2022/07/08 12:50:37;;;;;;;3.25;1.10;;;;;;;18.71;100.00;99500.13;15274843;19;20014;-82
2022/07/08 12:55:45;;;;;;;3.53;1.20;;;;;;;19.02;100.00;99479.97;15280307;19;20034;-82
2022/07/08 13:00:58;;;;;;;4.25;1.20;;;;;;;19.21;100.00;99489.47;15288370;19;20018;-84
2022/07/08 13:06:03;;;;;;;3.90;1.20;;;;;;;19.42;95.90;99498.75;15276945;19;20729;-81
2022/07/08 13:11:12;;;;;;;2.75;1.00;;;;;;;19.66;92.53;99481.16;15275477;19;20014;-82
2022/07/08 13:16:17;;;;;;;2.38;0.95;;;;;;;19.93;99.16;99477.84;15295360;19;20018;-81
2022/07/08 13:21:22;;;;;;;5.20;1.25;;;;;;;20.11;80.84;99482.84;15292031;19;20015;-81
2022/07/08 13:26:30;;;;;;;2.50;0.90;;;;;;;20.21;81.91;99457.88;15297369;19;20130;-82
2022/07/08 13:31:36;;;;;;;3.67;1.00;;;;;;;20.66;84.09;99457.53;15293873;19;20055;-82
2022/07/08 13:36:41;;;;;;;3.20;1.20;;;;;;;20.67;77.87;99460.09;15296788;19;20025;-84
2022/07/08 13:41:49;;;;;;;3.60;1.17;;;;;;;20.90;75.79;99459.81;15303327;19;20100;-83
2022/07/08 13:46:56;;;;;;;4.00;1.10;;;;;;;20.71;74.01;99460.53;15325330;19;20545;-83
2022/07/08 13:52:05;;;;;;;2.38;0.90;;;;;;;20.70;78.48;99458.84;15310142;19;20018;-83
2022/07/08 13:57:13;;;;;;;3.80;1.20;;;;;;;21.50;79.04;99453.69;15298707;19;20352;-84
2022/07/08 14:02:18;;;;;;;2.85;1.02;;;;;;;21.48;69.13;99444.81;15295626;19;20367;-86
2022/07/08 14:07:24;;;;;;;5.35;1.20;;;;;;;21.95;69.09;99436.69;15293065;19;20270;-83
2022/07/08 14:12:34;;;;;;;2.78;1.23;;;;;;;22.25;63.60;99421.69;15299850;19;20019;-84
2022/07/08 14:17:41;;;;;;;2.80;1.00;;;;;;;21.88;64.78;99415.78;15293223;19;20332;-81
2022/07/08 14:22:46;;;;;;;2.13;0.90;;;;;;;21.78;61.26;99418.94;15294034;19;20003;-82
2022/07/08 14:27:53;;;;;;;4.38;1.00;;;;;;;22.13;60.16;99430.56;15284344;19;20030;-82
2022/07/08 14:32:58;;;;;;;2.97;0.90;;;;;;;21.80;60.61;99412.22;15288835;19;20018;-84
2022/07/08 14:38:03;;;;;;;3.20;1.00;;;;;;;21.98;59.04;99407.97;15285620;19;20373;-82
2022/07/08 14:43:11;;;;;;;4.05;1.00;;;;;;;22.01;59.88;99402.06;15283355;19;20014;-82
2022/07/08 14:48:16;;;;;;;2.63;1.20;;;;;;;21.80;62.46;99412.22;15286491;19;20007;-83
2022/07/08 14:53:21;;;;;;;2.88;0.93;;;;;;;21.54;61.76;99416.59;15292101;19;20438;-82
2022/07/08 14:58:29;;;;;;;3.20;0.85;;;;;;;21.79;60.63;99401.44;15285861;19;20007;-83
2022/07/08 15:03:34;;;;;;;2.60;0.95;;;;;;;21.92;59.79;99403.34;15284577;19;20341;-83
2022/07/08 15:08:41;;;;;;;3.22;0.88;;;;;;;22.01;61.17;99402.06;15285506;19;20053;-83
2022/07/08 15:13:49;;;;;;;1.95;1.02;;;;;;;22.14;63.17;99398.47;15285768;19;20085;-82
2022/07/08 15:18:54;;;;;;;2.92;0.88;;;;;;;22.02;62.92;99395.53;15278935;19;20018;-82
2022/07/08 15:23:59;;;;;;;2.72;0.70;;;;;;;21.76;67.19;99399.09;15283963;19;20010;-84
2022/07/08 15:29:07;;;;;;;2.58;0.90;;;;;;;21.13;66.73;99413.97;15277214;19;20034;-82
2022/07/08 15:34:12;;;;;;;2.25;0.90;;;;;;;21.01;73.78;99408.22;15279029;19;20014;-81
2022/07/08 15:39:17;;;;;;;3.40;1.00;;;;;;;20.84;77.14;99410.47;15280291;19;20026;-84
2022/07/08 15:44:25;;;;;;;2.22;1.00;;;;;;;20.70;79.88;99404.06;15279828;19;20018;-84
2022/07/08 15:49:45;;;;;;;2.60;0.90;;;;;;;20.47;84.75;99416.16;15281239;19;20010;-83
2022/07/08 15:54:50;;;;;;;3.03;0.80;;;;;;;20.40;91.57;99409.81;15278935;19;20010;-81
2022/07/08 15:59:58;;;;;;;2.63;1.00;;;;;;;20.32;93.29;99408.91;15277485;19;20014;-82
2022/07/08 16:10:47;;;;;;;2.50;1.02;;;;;;;20.30;96.93;99405.53;15285680;19;19975;-83
2022/07/08 16:16:04;;;;;;;2.92;0.95;;;;;;;20.27;99.05;99411.41;15289675;19;20029;-82
2022/07/08 16:21:09;;;;;;;1.80;0.90;;;;;;;20.22;99.80;99404.84;15336115;19;20051;-83
2022/07/08 16:26:14;;;;;;;4.72;0.98;;;;;;;20.17;100.00;99410.91;15343471;19;20617;-84
2022/07/08 16:31:21;;;;;;;2.53;1.00;;;;;;;20.04;100.00;99408.09;15320774;19;20007;-84
2022/07/08 16:36:29;;;;;;;3.60;0.90;;;;;;;20.00;100.00;99410.34;15290093;19;20010;-83
2022/07/08 16:41:34;;;;;;;3.65;1.00;;;;;;;19.91;100.00;99433.44;15298886;19;20015;-84
2022/07/08 16:46:44;;;;;;;4.38;0.85;;;;;;;19.82;100.00;99422.59;15287779;19;20018;-84
2022/07/08 16:51:49;;;;;;;4.57;1.08;;;;;;;19.70;100.00;99416.81;15312970;19;20018;-84
2022/07/08 16:56:55;;;;;;;3.50;1.00;;;;;;;19.62;100.00;99421.59;15301195;19;20134;-83
2022/07/08 17:02:03;;;;;;;1.83;0.80;;;;;;;19.53;100.00;99426.34;15299152;19;20007;-84
2022/07/08 17:07:08;;;;;;;2.38;0.90;;;;;;;19.50;100.00;99424.84;15295781;19;20022;-83
2022/07/08 17:12:15;;;;;;;4.53;1.00;;;;;;;19.47;100.00;99417.03;15298202;19;20057;-83
2022/07/08 17:17:23;;;;;;;4.45;0.85;;;;;;;19.45;100.00;99423.75;15294560;19;20011;-84
2022/07/08 17:22:28;;;;;;;3.83;1.00;;;;;;;19.39;100.00;99430.81;15296372;19;20479;-84
2022/07/08 17:27:33;;;;;;;3.03;0.90;;;;;;;19.35;100.00;99430.34;15296606;19;20078;-84
2022/07/08 17:32:40;;;;;;;3.92;0.90;;;;;;;19.32;100.00;99424.44;15297803;19;20018;-84
2022/07/08 17:37:46;;;;;;;2.67;1.00;;;;;;;19.29;100.00;99433.88;15296373;19;20018;-84
2022/07/08 17:42:51;;;;;;;3.65;0.80;;;;;;;19.23;100.00;99432.75;15302178;19;20006;-82
2022/07/08 17:47:59;;;;;;;2.95;0.80;;;;;;;19.21;100.00;99434.81;15302668;19;20061;-83
2022/07/08 17:53:04;;;;;;;2.65;0.90;;;;;;;19.13;100.00;99436.81;15305300;19;20015;-82
2022/07/08 17:58:10;;;;;;;3.03;1.02;;;;;;;19.07;100.00;99433.84;15305188;19;20119;-82
2022/07/08 18:03:18;;;;;;;3.35;0.90;;;;;;;19.02;100.00;99436.28;15322178;19;20017;-82
